sensor_id;sensor_type;location;lat;lon;timestamp;temperature;humidity
62583;DHT22;48641;51.676;5.808;2023-12-04T00:00:37;11.90;57.20
62583;DHT22;48641;51.676;5.808;2023-12-04T00:03:02;11.90;57.30
62583;DHT22;48641;51.676;5.808;2023-12-04T00:05:28;11.90;57.10
62583;DHT22;48641;51.676;5.808;2023-12-04T00:07:53;11.90;57.20
62583;DHT22;48641;51.676;5.808;2023-12-04T00:10:19;11.90;57.30
62583;DHT22;48641;51.676;5.808;2023-12-04T00:12:45;11.90;58.20
62583;DHT22;48641;51.676;5.808;2023-12-04T00:15:11;11.90;57.30
62583;DHT22;48641;51.676;5.808;2023-12-04T00:17:36;11.90;57.30
62583;DHT22;48641;51.676;5.808;2023-12-04T00:20:06;11.90;57.30
62583;DHT22;48641;51.676;5.808;2023-12-04T00:22:32;11.90;57.30
62583;DHT22;48641;51.676;5.808;2023-12-04T00:24:57;11.80;57.30
62583;DHT22;48641;51.676;5.808;2023-12-04T00:27:23;11.80;57.20
62583;DHT22;48641;51.676;5.808;2023-12-04T00:29:52;11.80;57.20
62583;DHT22;48641;51.676;5.808;2023-12-04T00:32:18;11.80;57.20
62583;DHT22;48641;51.676;5.808;2023-12-04T00:34:43;11.80;57.20
62583;DHT22;48641;51.676;5.808;2023-12-04T00:37:09;11.90;57.20
62583;DHT22;48641;51.676;5.808;2023-12-04T00:39:34;11.90;57.30
62583;DHT22;48641;51.676;5.808;2023-12-04T00:42:00;11.80;57.20
62583;DHT22;48641;51.676;5.808;2023-12-04T00:44:26;11.80;57.20
62583;DHT22;48641;51.676;5.808;2023-12-04T00:46:51;11.80;57.40
62583;DHT22;48641;51.676;5.808;2023-12-04T00:49:17;11.80;57.30
62583;DHT22;48641;51.676;5.808;2023-12-04T00:51:42;11.80;57.30
62583;DHT22;48641;51.676;5.808;2023-12-04T00:54:08;11.80;57.30
62583;DHT22;48641;51.676;5.808;2023-12-04T00:56:34;11.80;57.30
62583;DHT22;48641;51.676;5.808;2023-12-04T00:58:59;11.80;57.40
62583;DHT22;48641;51.676;5.808;2023-12-04T01:01:25;11.80;57.40
62583;DHT22;48641;51.676;5.808;2023-12-04T01:03:50;11.80;57.40
62583;DHT22;48641;51.676;5.808;2023-12-04T01:06:22;11.80;57.40
62583;DHT22;48641;51.676;5.808;2023-12-04T01:08:49;11.80;57.40
62583;DHT22;48641;51.676;5.808;2023-12-04T01:11:16;11.80;57.40
62583;DHT22;48641;51.676;5.808;2023-12-04T01:13:42;11.80;57.40
62583;DHT22;48641;51.676;5.808;2023-12-04T01:16:08;11.80;57.40
62583;DHT22;48641;51.676;5.808;2023-12-04T01:18:34;11.80;57.40
62583;DHT22;48641;51.676;5.808;2023-12-04T01:21:00;11.80;57.40
62583;DHT22;48641;51.676;5.808;2023-12-04T01:23:25;11.80;57.40
62583;DHT22;48641;51.676;5.808;2023-12-04T01:25:51;11.80;57.40
62583;DHT22;48641;51.676;5.808;2023-12-04T01:28:16;11.80;57.40
62583;DHT22;48641;51.676;5.808;2023-12-04T01:30:42;11.80;57.40
62583;DHT22;48641;51.676;5.808;2023-12-04T01:33:08;11.80;57.40
62583;DHT22;48641;51.676;5.808;2023-12-04T01:35:34;11.80;57.40
62583;DHT22;48641;51.676;5.808;2023-12-04T01:37:59;11.80;57.40
62583;DHT22;48641;51.676;5.808;2023-12-04T01:40:26;11.80;57.30
62583;DHT22;48641;51.676;5.808;2023-12-04T01:42:52;11.80;57.40
62583;DHT22;48641;51.676;5.808;2023-12-04T01:45:17;11.80;57.40
62583;DHT22;48641;51.676;5.808;2023-12-04T01:47:43;11.80;57.40
62583;DHT22;48641;51.676;5.808;2023-12-04T01:50:10;11.80;57.40
62583;DHT22;48641;51.676;5.808;2023-12-04T01:52:36;11.80;57.50
62583;DHT22;48641;51.676;5.808;2023-12-04T01:55:03;11.80;57.50
62583;DHT22;48641;51.676;5.808;2023-12-04T01:57:29;11.80;57.60
62583;DHT22;48641;51.676;5.808;2023-12-04T01:59:55;11.80;57.60
62583;DHT22;48641;51.676;5.808;2023-12-04T02:02:21;11.80;57.60
62583;DHT22;48641;51.676;5.808;2023-12-04T02:04:47;11.80;57.60
62583;DHT22;48641;51.676;5.808;2023-12-04T02:07:12;11.80;57.60
62583;DHT22;48641;51.676;5.808;2023-12-04T02:09:38;11.80;57.70
62583;DHT22;48641;51.676;5.808;2023-12-04T02:12:04;11.80;57.60
62583;DHT22;48641;51.676;5.808;2023-12-04T02:14:30;11.80;57.60
62583;DHT22;48641;51.676;5.808;2023-12-04T02:16:56;11.80;57.70
62583;DHT22;48641;51.676;5.808;2023-12-04T02:19:22;11.90;57.70
62583;DHT22;48641;51.676;5.808;2023-12-04T02:21:48;11.90;57.70
62583;DHT22;48641;51.676;5.808;2023-12-04T02:24:14;11.90;57.70
62583;DHT22;48641;51.676;5.808;2023-12-04T02:26:52;11.90;57.70
62583;DHT22;48641;51.676;5.808;2023-12-04T02:29:26;11.90;57.70
62583;DHT22;48641;51.676;5.808;2023-12-04T02:31:55;11.90;57.70
62583;DHT22;48641;51.676;5.808;2023-12-04T02:34:22;11.90;57.70
62583;DHT22;48641;51.676;5.808;2023-12-04T02:36:50;12.00;57.80
62583;DHT22;48641;51.676;5.808;2023-12-04T02:39:17;12.00;57.70
62583;DHT22;48641;51.676;5.808;2023-12-04T02:41:42;12.00;57.70
62583;DHT22;48641;51.676;5.808;2023-12-04T02:44:08;12.00;57.60
62583;DHT22;48641;51.676;5.808;2023-12-04T02:46:34;12.00;57.60
62583;DHT22;48641;51.676;5.808;2023-12-04T02:48:59;12.10;57.60
62583;DHT22;48641;51.676;5.808;2023-12-04T02:51:25;12.00;57.60
62583;DHT22;48641;51.676;5.808;2023-12-04T02:53:51;12.00;57.50
62583;DHT22;48641;51.676;5.808;2023-12-04T02:56:17;12.10;57.60
62583;DHT22;48641;51.676;5.808;2023-12-04T02:58:43;12.10;57.50
62583;DHT22;48641;51.676;5.808;2023-12-04T03:01:08;12.10;57.50
62583;DHT22;48641;51.676;5.808;2023-12-04T03:03:34;12.10;57.50
62583;DHT22;48641;51.676;5.808;2023-12-04T03:06:00;12.20;57.50
62583;DHT22;48641;51.676;5.808;2023-12-04T03:08:25;12.10;57.40
62583;DHT22;48641;51.676;5.808;2023-12-04T03:10:51;12.20;57.50
62583;DHT22;48641;51.676;5.808;2023-12-04T03:13:16;12.20;57.40
62583;DHT22;48641;51.676;5.808;2023-12-04T03:15:42;12.20;57.40
62583;DHT22;48641;51.676;5.808;2023-12-04T03:18:08;12.20;57.30
62583;DHT22;48641;51.676;5.808;2023-12-04T03:20:33;12.20;57.30
62583;DHT22;48641;51.676;5.808;2023-12-04T03:22:59;12.20;57.30
62583;DHT22;48641;51.676;5.808;2023-12-04T03:25:24;12.20;57.30
62583;DHT22;48641;51.676;5.808;2023-12-04T03:27:50;12.20;57.30
62583;DHT22;48641;51.676;5.808;2023-12-04T03:30:15;12.20;57.30
62583;DHT22;48641;51.676;5.808;2023-12-04T03:32:41;12.30;57.40
62583;DHT22;48641;51.676;5.808;2023-12-04T03:35:07;12.20;57.30
62583;DHT22;48641;51.676;5.808;2023-12-04T03:37:32;12.20;57.30
62583;DHT22;48641;51.676;5.808;2023-12-04T03:39:59;12.30;57.30
62583;DHT22;48641;51.676;5.808;2023-12-04T03:42:25;12.30;57.30
62583;DHT22;48641;51.676;5.808;2023-12-04T03:44:50;12.30;57.20
62583;DHT22;48641;51.676;5.808;2023-12-04T03:47:16;12.30;57.20
62583;DHT22;48641;51.676;5.808;2023-12-04T03:49:41;12.30;57.20
62583;DHT22;48641;51.676;5.808;2023-12-04T03:52:07;12.30;57.20
62583;DHT22;48641;51.676;5.808;2023-12-04T03:54:32;12.30;57.10
62583;DHT22;48641;51.676;5.808;2023-12-04T03:56:58;12.40;57.20
62583;DHT22;48641;51.676;5.808;2023-12-04T03:59:24;12.30;58.10
62583;DHT22;48641;51.676;5.808;2023-12-04T04:01:49;12.40;57.20
62583;DHT22;48641;51.676;5.808;2023-12-04T04:04:15;12.40;57.20
62583;DHT22;48641;51.676;5.808;2023-12-04T04:06:40;12.40;57.20
62583;DHT22;48641;51.676;5.808;2023-12-04T04:09:06;12.40;57.10
62583;DHT22;48641;51.676;5.808;2023-12-04T04:11:31;12.40;57.10
62583;DHT22;48641;51.676;5.808;2023-12-04T04:13:57;12.40;57.10
62583;DHT22;48641;51.676;5.808;2023-12-04T04:16:22;12.40;57.00
62583;DHT22;48641;51.676;5.808;2023-12-04T04:18:48;12.40;57.00
62583;DHT22;48641;51.676;5.808;2023-12-04T04:21:14;12.40;57.00
62583;DHT22;48641;51.676;5.808;2023-12-04T04:23:39;12.40;57.90
62583;DHT22;48641;51.676;5.808;2023-12-04T04:26:05;12.40;56.90
62583;DHT22;48641;51.676;5.808;2023-12-04T04:28:31;12.40;56.90
62583;DHT22;48641;51.676;5.808;2023-12-04T04:30:56;12.40;56.90
62583;DHT22;48641;51.676;5.808;2023-12-04T04:33:22;12.40;56.90
62583;DHT22;48641;51.676;5.808;2023-12-04T04:35:48;12.40;56.90
62583;DHT22;48641;51.676;5.808;2023-12-04T04:38:13;12.40;56.90
62583;DHT22;48641;51.676;5.808;2023-12-04T04:40:39;12.40;56.90
62583;DHT22;48641;51.676;5.808;2023-12-04T04:43:08;12.40;56.90
62583;DHT22;48641;51.676;5.808;2023-12-04T04:45:33;12.40;56.90
62583;DHT22;48641;51.676;5.808;2023-12-04T04:47:59;12.40;57.00
62583;DHT22;48641;51.676;5.808;2023-12-04T04:50:24;12.40;56.90
62583;DHT22;48641;51.676;5.808;2023-12-04T04:52:50;12.50;57.00
62583;DHT22;48641;51.676;5.808;2023-12-04T04:55:15;12.40;56.90
62583;DHT22;48641;51.676;5.808;2023-12-04T04:57:41;12.40;56.90
62583;DHT22;48641;51.676;5.808;2023-12-04T05:00:07;12.50;56.90
62583;DHT22;48641;51.676;5.808;2023-12-04T05:02:33;12.50;56.90
62583;DHT22;48641;51.676;5.808;2023-12-04T05:05:02;12.50;56.80
62583;DHT22;48641;51.676;5.808;2023-12-04T05:07:27;12.50;56.90
62583;DHT22;48641;51.676;5.808;2023-12-04T05:09:54;12.50;56.90
62583;DHT22;48641;51.676;5.808;2023-12-04T05:12:19;12.50;56.80
62583;DHT22;48641;51.676;5.808;2023-12-04T05:14:45;12.50;56.80
62583;DHT22;48641;51.676;5.808;2023-12-04T05:17:10;12.50;56.80
62583;DHT22;48641;51.676;5.808;2023-12-04T05:19:36;12.50;56.80
62583;DHT22;48641;51.676;5.808;2023-12-04T05:22:01;12.50;56.80
62583;DHT22;48641;51.676;5.808;2023-12-04T05:24:27;12.50;56.70
62583;DHT22;48641;51.676;5.808;2023-12-04T05:26:53;12.60;56.70
62583;DHT22;48641;51.676;5.808;2023-12-04T05:29:18;12.50;56.70
62583;DHT22;48641;51.676;5.808;2023-12-04T05:31:44;12.60;56.70
62583;DHT22;48641;51.676;5.808;2023-12-04T05:34:10;12.60;56.70
62583;DHT22;48641;51.676;5.808;2023-12-04T05:36:35;12.60;56.70
62583;DHT22;48641;51.676;5.808;2023-12-04T05:39:01;12.60;56.70
62583;DHT22;48641;51.676;5.808;2023-12-04T05:41:26;12.60;56.70
62583;DHT22;48641;51.676;5.808;2023-12-04T05:43:52;12.60;56.60
62583;DHT22;48641;51.676;5.808;2023-12-04T05:46:18;12.60;56.70
62583;DHT22;48641;51.676;5.808;2023-12-04T05:48:44;12.50;56.60
62583;DHT22;48641;51.676;5.808;2023-12-04T05:51:10;12.60;56.70
62583;DHT22;48641;51.676;5.808;2023-12-04T05:53:36;12.60;56.60
62583;DHT22;48641;51.676;5.808;2023-12-04T05:56:04;12.50;56.60
62583;DHT22;48641;51.676;5.808;2023-12-04T05:58:29;12.60;56.60
62583;DHT22;48641;51.676;5.808;2023-12-04T06:00:55;12.50;56.60
62583;DHT22;48641;51.676;5.808;2023-12-04T06:03:20;12.60;56.70
62583;DHT22;48641;51.676;5.808;2023-12-04T06:05:46;12.50;56.60
62583;DHT22;48641;51.676;5.808;2023-12-04T06:08:12;12.60;56.70
62583;DHT22;48641;51.676;5.808;2023-12-04T06:10:38;12.60;56.60
62583;DHT22;48641;51.676;5.808;2023-12-04T06:13:03;12.60;56.70
62583;DHT22;48641;51.676;5.808;2023-12-04T06:15:29;12.60;56.70
62583;DHT22;48641;51.676;5.808;2023-12-04T06:17:54;12.60;56.70
62583;DHT22;48641;51.676;5.808;2023-12-04T06:20:20;12.60;56.60
62583;DHT22;48641;51.676;5.808;2023-12-04T06:22:46;12.60;56.60
62583;DHT22;48641;51.676;5.808;2023-12-04T06:25:12;12.60;56.60
62583;DHT22;48641;51.676;5.808;2023-12-04T06:27:38;12.60;56.60
62583;DHT22;48641;51.676;5.808;2023-12-04T06:30:05;12.60;56.60
62583;DHT22;48641;51.676;5.808;2023-12-04T06:32:31;12.60;56.70
62583;DHT22;48641;51.676;5.808;2023-12-04T06:34:57;12.60;56.60
62583;DHT22;48641;51.676;5.808;2023-12-04T06:37:23;12.60;56.50
62583;DHT22;48641;51.676;5.808;2023-12-04T06:39:50;12.70;56.60
62583;DHT22;48641;51.676;5.808;2023-12-04T06:42:18;12.70;56.50
62583;DHT22;48641;51.676;5.808;2023-12-04T06:44:44;12.70;56.50
62583;DHT22;48641;51.676;5.808;2023-12-04T06:47:10;12.70;56.50
62583;DHT22;48641;51.676;5.808;2023-12-04T06:49:37;12.70;56.60
62583;DHT22;48641;51.676;5.808;2023-12-04T06:52:03;12.70;57.10
62583;DHT22;48641;51.676;5.808;2023-12-04T06:54:29;12.70;56.80
62583;DHT22;48641;51.676;5.808;2023-12-04T06:56:54;12.70;56.70
62583;DHT22;48641;51.676;5.808;2023-12-04T06:59:20;12.70;57.80
62583;DHT22;48641;51.676;5.808;2023-12-04T07:01:46;12.70;57.10
62583;DHT22;48641;51.676;5.808;2023-12-04T07:04:12;12.70;56.90
62583;DHT22;48641;51.676;5.808;2023-12-04T07:06:39;12.70;56.90
62583;DHT22;48641;51.676;5.808;2023-12-04T07:09:05;12.70;57.80
62583;DHT22;48641;51.676;5.808;2023-12-04T07:11:33;12.70;56.80
62583;DHT22;48641;51.676;5.808;2023-12-04T07:13:59;12.70;56.80
62583;DHT22;48641;51.676;5.808;2023-12-04T07:16:25;12.70;56.70
62583;DHT22;48641;51.676;5.808;2023-12-04T07:18:50;12.70;56.80
62583;DHT22;48641;51.676;5.808;2023-12-04T07:21:16;12.70;56.70
62583;DHT22;48641;51.676;5.808;2023-12-04T07:23:41;12.70;56.70
62583;DHT22;48641;51.676;5.808;2023-12-04T07:26:07;12.70;56.70
62583;DHT22;48641;51.676;5.808;2023-12-04T07:28:33;12.70;57.60
62583;DHT22;48641;51.676;5.808;2023-12-04T07:30:59;12.70;56.70
62583;DHT22;48641;51.676;5.808;2023-12-04T07:33:27;12.70;56.70
62583;DHT22;48641;51.676;5.808;2023-12-04T07:35:52;12.70;56.60
62583;DHT22;48641;51.676;5.808;2023-12-04T07:38:18;12.70;56.60
62583;DHT22;48641;51.676;5.808;2023-12-04T07:40:45;12.80;56.70
62583;DHT22;48641;51.676;5.808;2023-12-04T11:59:38;13.00;56.70
62583;DHT22;48641;51.676;5.808;2023-12-04T12:02:07;13.00;56.70
62583;DHT22;48641;51.676;5.808;2023-12-04T12:04:33;13.00;56.60
62583;DHT22;48641;51.676;5.808;2023-12-04T12:06:59;13.00;56.70
62583;DHT22;48641;51.676;5.808;2023-12-04T12:09:28;13.00;56.50
62583;DHT22;48641;51.676;5.808;2023-12-04T12:11:54;13.00;56.60
62583;DHT22;48641;51.676;5.808;2023-12-04T12:14:21;13.00;56.50
62583;DHT22;48641;51.676;5.808;2023-12-04T12:16:47;13.00;56.50
62583;DHT22;48641;51.676;5.808;2023-12-04T12:19:12;13.00;56.50
62583;DHT22;48641;51.676;5.808;2023-12-04T12:21:38;13.00;56.50
62583;DHT22;48641;51.676;5.808;2023-12-04T12:24:06;13.00;56.40
62583;DHT22;48641;51.676;5.808;2023-12-04T12:26:32;13.10;56.40
62583;DHT22;48641;51.676;5.808;2023-12-04T12:28:58;13.10;56.40
62583;DHT22;48641;51.676;5.808;2023-12-04T12:31:23;13.10;56.40
62583;DHT22;48641;51.676;5.808;2023-12-04T12:33:49;13.10;56.40
62583;DHT22;48641;51.676;5.808;2023-12-04T12:36:15;13.00;56.40
62583;DHT22;48641;51.676;5.808;2023-12-04T12:38:46;13.00;56.40
62583;DHT22;48641;51.676;5.808;2023-12-04T12:41:16;13.00;56.40
62583;DHT22;48641;51.676;5.808;2023-12-04T12:43:43;13.00;56.40
62583;DHT22;48641;51.676;5.808;2023-12-04T12:46:10;13.00;56.40
62583;DHT22;48641;51.676;5.808;2023-12-04T12:48:35;13.00;56.40
62583;DHT22;48641;51.676;5.808;2023-12-04T12:51:02;13.00;56.40
62583;DHT22;48641;51.676;5.808;2023-12-04T12:53:28;13.00;56.40
62583;DHT22;48641;51.676;5.808;2023-12-04T12:55:54;13.00;56.30
62583;DHT22;48641;51.676;5.808;2023-12-04T12:58:19;13.00;56.40
62583;DHT22;48641;51.676;5.808;2023-12-04T13:00:47;13.10;56.50
62583;DHT22;48641;51.676;5.808;2023-12-04T13:03:19;13.10;56.40
62583;DHT22;48641;51.676;5.808;2023-12-04T13:05:45;13.10;56.40
62583;DHT22;48641;51.676;5.808;2023-12-04T13:08:11;13.10;56.40
62583;DHT22;48641;51.676;5.808;2023-12-04T13:10:37;13.10;56.40
62583;DHT22;48641;51.676;5.808;2023-12-04T13:13:03;13.10;56.40
62583;DHT22;48641;51.676;5.808;2023-12-04T13:15:29;13.10;57.30
62583;DHT22;48641;51.676;5.808;2023-12-04T13:17:55;13.10;56.90
62583;DHT22;48641;51.676;5.808;2023-12-04T13:20:22;13.20;56.80
62583;DHT22;48641;51.676;5.808;2023-12-04T13:22:48;13.10;56.60
62583;DHT22;48641;51.676;5.808;2023-12-04T13:25:14;13.20;56.70
62583;DHT22;48641;51.676;5.808;2023-12-04T13:27:40;13.20;56.60
62583;DHT22;48641;51.676;5.808;2023-12-04T13:30:07;13.20;56.60
62583;DHT22;48641;51.676;5.808;2023-12-04T13:32:36;13.10;56.50
62583;DHT22;48641;51.676;5.808;2023-12-04T13:35:05;13.10;56.50
62583;DHT22;48641;51.676;5.808;2023-12-04T13:37:32;13.10;56.50
62583;DHT22;48641;51.676;5.808;2023-12-04T13:39:58;13.10;56.40
62583;DHT22;48641;51.676;5.808;2023-12-04T13:42:27;13.00;56.70
62583;DHT22;48641;51.676;5.808;2023-12-04T13:45:11;13.00;56.80
62583;DHT22;48641;51.676;5.808;2023-12-04T13:47:40;13.00;56.70
62583;DHT22;48641;51.676;5.808;2023-12-04T13:50:06;13.10;56.80
62583;DHT22;48641;51.676;5.808;2023-12-04T13:52:34;13.10;56.70
62583;DHT22;48641;51.676;5.808;2023-12-04T13:55:00;13.10;56.70
62583;DHT22;48641;51.676;5.808;2023-12-04T13:57:26;13.10;56.70
62583;DHT22;48641;51.676;5.808;2023-12-04T13:59:54;13.10;56.70
62583;DHT22;48641;51.676;5.808;2023-12-04T14:02:22;13.10;56.60
62583;DHT22;48641;51.676;5.808;2023-12-04T14:04:48;13.10;56.50
62583;DHT22;48641;51.676;5.808;2023-12-04T14:07:14;13.20;56.60
62583;DHT22;48641;51.676;5.808;2023-12-04T14:09:41;13.20;56.60
62583;DHT22;48641;51.676;5.808;2023-12-04T14:12:07;13.20;56.50
62583;DHT22;48641;51.676;5.808;2023-12-04T14:14:33;13.20;56.50
62583;DHT22;48641;51.676;5.808;2023-12-04T14:17:00;13.20;57.60
62583;DHT22;48641;51.676;5.808;2023-12-04T14:19:28;13.20;57.10
62583;DHT22;48641;51.676;5.808;2023-12-04T14:21:54;13.20;56.90
62583;DHT22;48641;51.676;5.808;2023-12-04T14:24:20;13.20;56.90
62583;DHT22;48641;51.676;5.808;2023-12-04T14:26:47;13.20;56.70
62583;DHT22;48641;51.676;5.808;2023-12-04T14:29:12;13.20;56.70
62583;DHT22;48641;51.676;5.808;2023-12-04T14:31:38;13.20;56.70
62583;DHT22;48641;51.676;5.808;2023-12-04T14:34:05;13.20;56.60
62583;DHT22;48641;51.676;5.808;2023-12-04T14:36:31;13.20;56.70
62583;DHT22;48641;51.676;5.808;2023-12-04T14:38:58;13.20;56.70
62583;DHT22;48641;51.676;5.808;2023-12-04T14:41:23;13.20;56.60
62583;DHT22;48641;51.676;5.808;2023-12-04T14:43:49;13.20;56.60
62583;DHT22;48641;51.676;5.808;2023-12-04T14:46:14;13.20;56.50
62583;DHT22;48641;51.676;5.808;2023-12-04T14:48:40;13.20;56.60
62583;DHT22;48641;51.676;5.808;2023-12-04T14:51:13;13.20;57.10
62583;DHT22;48641;51.676;5.808;2023-12-04T14:53:39;13.20;56.90
62583;DHT22;48641;51.676;5.808;2023-12-04T14:56:09;13.20;57.30
62583;DHT22;48641;51.676;5.808;2023-12-04T14:58:35;13.30;57.10
62583;DHT22;48641;51.676;5.808;2023-12-04T15:01:10;13.30;57.00
62583;DHT22;48641;51.676;5.808;2023-12-04T15:03:55;13.30;57.20
62583;DHT22;48641;51.676;5.808;2023-12-04T15:06:39;13.30;57.70
62583;DHT22;48641;51.676;5.808;2023-12-04T15:09:05;13.30;57.80
62583;DHT22;48641;51.676;5.808;2023-12-04T15:11:49;13.30;57.40
62583;DHT22;48641;51.676;5.808;2023-12-04T15:14:33;13.30;57.60
62583;DHT22;48641;51.676;5.808;2023-12-04T15:17:25;13.30;57.30
62583;DHT22;48641;51.676;5.808;2023-12-04T15:19:56;13.20;57.20
62583;DHT22;48641;51.676;5.808;2023-12-04T15:22:25;13.20;57.50
62583;DHT22;48641;51.676;5.808;2023-12-04T15:24:50;13.20;57.40
62583;DHT22;48641;51.676;5.808;2023-12-04T15:27:17;13.20;57.30
62583;DHT22;48641;51.676;5.808;2023-12-04T15:29:43;13.20;58.00
62583;DHT22;48641;51.676;5.808;2023-12-04T15:32:09;13.20;57.70
62583;DHT22;48641;51.676;5.808;2023-12-04T15:34:34;13.20;57.60
62583;DHT22;48641;51.676;5.808;2023-12-04T15:37:00;13.20;57.40
62583;DHT22;48641;51.676;5.808;2023-12-04T15:39:26;13.20;57.30
62583;DHT22;48641;51.676;5.808;2023-12-04T15:41:51;13.20;57.20
62583;DHT22;48641;51.676;5.808;2023-12-04T15:44:17;13.20;58.20
62583;DHT22;48641;51.676;5.808;2023-12-04T15:46:43;13.20;57.20
62583;DHT22;48641;51.676;5.808;2023-12-04T15:49:08;13.20;57.20
62583;DHT22;48641;51.676;5.808;2023-12-04T15:51:34;13.10;57.00
62583;DHT22;48641;51.676;5.808;2023-12-04T15:53:59;13.10;57.10
62583;DHT22;48641;51.676;5.808;2023-12-04T15:56:25;13.10;57.20
62583;DHT22;48641;51.676;5.808;2023-12-04T15:58:51;13.00;57.20
62583;DHT22;48641;51.676;5.808;2023-12-04T16:01:16;13.00;57.20
62583;DHT22;48641;51.676;5.808;2023-12-04T16:03:42;13.00;57.20
62583;DHT22;48641;51.676;5.808;2023-12-04T16:06:09;13.00;57.50
62583;DHT22;48641;51.676;5.808;2023-12-04T16:08:34;13.00;57.40
62583;DHT22;48641;51.676;5.808;2023-12-04T16:11:00;13.00;57.50
62583;DHT22;48641;51.676;5.808;2023-12-04T16:13:26;13.00;57.50
62583;DHT22;48641;51.676;5.808;2023-12-04T16:15:51;13.00;57.40
62583;DHT22;48641;51.676;5.808;2023-12-04T16:18:17;12.90;57.40
62583;DHT22;48641;51.676;5.808;2023-12-04T16:20:43;12.90;57.30
62583;DHT22;48641;51.676;5.808;2023-12-04T16:23:12;12.90;57.30
62583;DHT22;48641;51.676;5.808;2023-12-04T16:25:37;12.90;57.20
62583;DHT22;48641;51.676;5.808;2023-12-04T16:28:03;13.00;57.20
62583;DHT22;48641;51.676;5.808;2023-12-04T16:30:29;13.00;57.00
62583;DHT22;48641;51.676;5.808;2023-12-04T16:32:55;13.00;56.90
62583;DHT22;48641;51.676;5.808;2023-12-04T16:35:21;13.00;57.00
62583;DHT22;48641;51.676;5.808;2023-12-04T16:37:47;12.90;57.20
62583;DHT22;48641;51.676;5.808;2023-12-04T16:40:13;12.90;57.30
62583;DHT22;48641;51.676;5.808;2023-12-04T16:42:40;12.90;57.40
62583;DHT22;48641;51.676;5.808;2023-12-04T16:45:08;12.90;58.50
62583;DHT22;48641;51.676;5.808;2023-12-04T16:47:34;12.90;58.20
62583;DHT22;48641;51.676;5.808;2023-12-04T16:50:00;12.90;57.80
62583;DHT22;48641;51.676;5.808;2023-12-04T16:52:25;12.80;57.60
62583;DHT22;48641;51.676;5.808;2023-12-04T16:54:51;12.80;57.60
62583;DHT22;48641;51.676;5.808;2023-12-04T16:57:17;12.80;57.50
62583;DHT22;48641;51.676;5.808;2023-12-04T16:59:43;12.80;57.50
62583;DHT22;48641;51.676;5.808;2023-12-04T17:02:08;12.70;57.40
62583;DHT22;48641;51.676;5.808;2023-12-04T17:04:34;12.80;57.50
62583;DHT22;48641;51.676;5.808;2023-12-04T17:07:00;12.70;57.40
62583;DHT22;48641;51.676;5.808;2023-12-04T17:09:26;12.70;57.50
62583;DHT22;48641;51.676;5.808;2023-12-04T17:11:52;12.70;57.40
62583;DHT22;48641;51.676;5.808;2023-12-04T17:14:17;12.80;57.30
62583;DHT22;48641;51.676;5.808;2023-12-04T17:16:43;12.80;57.30
62583;DHT22;48641;51.676;5.808;2023-12-04T17:19:08;12.80;57.20
62583;DHT22;48641;51.676;5.808;2023-12-04T17:21:35;12.80;57.20
62583;DHT22;48641;51.676;5.808;2023-12-04T17:24:01;12.80;57.20
62583;DHT22;48641;51.676;5.808;2023-12-04T17:26:27;12.80;57.10
62583;DHT22;48641;51.676;5.808;2023-12-04T17:28:52;12.80;57.20
62583;DHT22;48641;51.676;5.808;2023-12-04T17:31:18;12.70;57.20
62583;DHT22;48641;51.676;5.808;2023-12-04T17:33:44;12.70;57.30
62583;DHT22;48641;51.676;5.808;2023-12-04T17:36:09;12.70;57.30
62583;DHT22;48641;51.676;5.808;2023-12-04T17:38:36;12.70;58.20
62583;DHT22;48641;51.676;5.808;2023-12-04T17:41:02;12.70;57.30
62583;DHT22;48641;51.676;5.808;2023-12-04T17:43:27;12.60;57.30
62583;DHT22;48641;51.676;5.808;2023-12-04T17:45:55;12.60;58.20
62583;DHT22;48641;51.676;5.808;2023-12-04T17:48:21;12.60;57.30
62583;DHT22;48641;51.676;5.808;2023-12-04T17:50:47;12.60;57.30
62583;DHT22;48641;51.676;5.808;2023-12-04T17:53:13;12.60;57.30
62583;DHT22;48641;51.676;5.808;2023-12-04T17:55:38;12.60;58.20
62583;DHT22;48641;51.676;5.808;2023-12-04T17:58:04;12.60;57.30
62583;DHT22;48641;51.676;5.808;2023-12-04T18:00:29;12.60;57.30
62583;DHT22;48641;51.676;5.808;2023-12-04T18:02:56;12.60;57.30
62583;DHT22;48641;51.676;5.808;2023-12-04T18:05:21;12.60;57.20
62583;DHT22;48641;51.676;5.808;2023-12-04T18:07:49;12.60;57.20
62583;DHT22;48641;51.676;5.808;2023-12-04T18:10:14;12.60;57.20
62583;DHT22;48641;51.676;5.808;2023-12-04T18:12:40;12.60;57.20
62583;DHT22;48641;51.676;5.808;2023-12-04T18:15:07;12.60;57.20
62583;DHT22;48641;51.676;5.808;2023-12-04T18:17:35;12.60;57.30
62583;DHT22;48641;51.676;5.808;2023-12-04T18:20:08;12.60;57.20
62583;DHT22;48641;51.676;5.808;2023-12-04T18:22:33;12.60;57.30
62583;DHT22;48641;51.676;5.808;2023-12-04T18:25:00;12.60;57.30
62583;DHT22;48641;51.676;5.808;2023-12-04T18:27:28;12.50;57.30
62583;DHT22;48641;51.676;5.808;2023-12-04T18:29:54;12.50;57.20
62583;DHT22;48641;51.676;5.808;2023-12-04T18:32:20;12.50;57.30
62583;DHT22;48641;51.676;5.808;2023-12-04T18:34:46;12.50;57.30
62583;DHT22;48641;51.676;5.808;2023-12-04T18:37:20;12.50;57.30
62583;DHT22;48641;51.676;5.808;2023-12-04T18:39:46;12.50;57.30
62583;DHT22;48641;51.676;5.808;2023-12-04T18:42:12;12.50;57.40
62583;DHT22;48641;51.676;5.808;2023-12-04T18:44:38;12.50;57.40
62583;DHT22;48641;51.676;5.808;2023-12-04T18:47:07;12.50;57.40
62583;DHT22;48641;51.676;5.808;2023-12-04T18:49:36;12.40;57.40
62583;DHT22;48641;51.676;5.808;2023-12-04T18:52:03;12.50;57.30
62583;DHT22;48641;51.676;5.808;2023-12-04T18:54:28;12.50;57.60
62583;DHT22;48641;51.676;5.808;2023-12-04T18:56:54;12.50;57.50
62583;DHT22;48641;51.676;5.808;2023-12-04T18:59:20;12.50;57.40
62583;DHT22;48641;51.676;5.808;2023-12-04T19:01:48;12.50;57.40
62583;DHT22;48641;51.676;5.808;2023-12-04T19:04:17;12.50;57.40
62583;DHT22;48641;51.676;5.808;2023-12-04T19:06:43;12.50;57.30
62583;DHT22;48641;51.676;5.808;2023-12-04T19:09:09;12.50;57.30
62583;DHT22;48641;51.676;5.808;2023-12-04T19:11:34;12.50;57.40
62583;DHT22;48641;51.676;5.808;2023-12-04T19:14:00;12.50;57.40
62583;DHT22;48641;51.676;5.808;2023-12-04T19:16:25;12.40;57.40
62583;DHT22;48641;51.676;5.808;2023-12-04T19:18:51;12.40;57.40
62583;DHT22;48641;51.676;5.808;2023-12-04T19:21:19;12.40;57.40
62583;DHT22;48641;51.676;5.808;2023-12-04T19:23:44;12.40;57.40
62583;DHT22;48641;51.676;5.808;2023-12-04T19:26:10;12.40;57.40
62583;DHT22;48641;51.676;5.808;2023-12-04T19:28:35;12.40;57.40
62583;DHT22;48641;51.676;5.808;2023-12-04T19:31:02;12.40;57.50
62583;DHT22;48641;51.676;5.808;2023-12-04T19:33:29;12.40;57.50
62583;DHT22;48641;51.676;5.808;2023-12-04T19:35:56;12.40;57.40
62583;DHT22;48641;51.676;5.808;2023-12-04T19:38:21;12.40;57.50
62583;DHT22;48641;51.676;5.808;2023-12-04T19:40:47;12.40;57.50